createdAt,value
2023-02-03T00:01:29.702Z,102025.22
2023-02-03T00:06:32.528Z,102013.50
2023-02-03T00:11:34.281Z,102003.47
2023-02-03T00:16:36.140Z,101983.59
2023-02-03T00:21:37.742Z,101979.94
2023-02-03T00:26:43.186Z,101965.69
2023-02-03T00:31:44.887Z,101960.25
2023-02-03T00:36:47.103Z,101948.38
2023-02-03T00:41:48.707Z,101943.94
2023-02-03T00:46:50.236Z,101947.06
2023-02-03T00:51:52.230Z,101946.72
2023-02-03T00:56:55.600Z,101947.56
2023-02-03T01:01:57.211Z,101932.13
2023-02-03T01:06:59.460Z,101937.19
2023-02-03T01:12:01.268Z,101945.59
2023-02-03T01:17:02.995Z,101926.38
2023-02-03T01:22:04.760Z,101929.03
2023-02-03T01:27:06.416Z,101937.88
2023-02-03T01:32:08.092Z,101951.69
2023-02-03T01:37:10.185Z,101984.03
2023-02-03T01:42:15.902Z,101983.63
2023-02-03T01:47:22.067Z,101992.47
2023-02-03T01:52:24.727Z,101979.16
2023-02-03T01:57:41.000Z,101999.84
2023-02-03T02:02:45.478Z,102003.88
2023-02-03T02:07:48.354Z,101992.88
2023-02-03T02:12:50.112Z,101994.97
2023-02-03T02:18:40.261Z,101970.31
2023-02-03T02:24:10.217Z,101972.94
2023-02-03T02:29:42.171Z,101981.00
2023-02-03T02:35:26.204Z,101975.38
2023-02-03T02:40:32.283Z,101968.44
2023-02-03T02:45:49.498Z,101953.97
2023-02-03T02:50:55.233Z,101931.41
2023-02-03T02:55:59.372Z,101929.03
2023-02-03T03:01:02.480Z,101920.25
2023-02-03T03:06:09.256Z,101933.44
2023-02-03T03:11:14.333Z,101958.00
2023-02-03T03:16:18.146Z,101945.84
2023-02-03T03:21:36.085Z,101940.41
2023-02-03T03:26:57.029Z,101935.69
2023-02-03T03:31:58.797Z,101924.97
2023-02-03T03:37:24.030Z,101923.97
2023-02-03T03:42:34.134Z,101924.97
2023-02-03T03:47:49.750Z,101931.72
2023-02-03T03:52:54.211Z,101930.09
2023-02-03T03:58:18.619Z,101938.59
2023-02-03T04:03:35.303Z,101947.47
2023-02-03T04:08:36.883Z,101943.50
2023-02-03T04:13:38.478Z,101948.78
2023-02-03T04:18:41.155Z,101927.97
2023-02-03T04:23:42.791Z,101924.72
2023-02-03T04:28:44.802Z,101902.38
2023-02-03T04:33:46.358Z,101921.69
2023-02-03T04:38:51.253Z,101933.00
2023-02-03T04:43:53.186Z,101905.53
2023-02-03T04:48:54.778Z,101906.47
2023-02-03T04:53:56.657Z,101917.88
2023-02-03T04:58:58.476Z,101918.00
2023-02-03T05:04:00.295Z,101915.25
2023-02-03T05:09:02.275Z,101922.50
2023-02-03T05:14:04.172Z,101918.09
2023-02-03T05:19:06.132Z,101912.69
2023-02-03T05:24:08.038Z,101927.66
2023-02-03T05:29:09.797Z,101917.16
2023-02-03T05:34:11.733Z,101907.28
2023-02-03T05:39:13.764Z,101917.66
2023-02-03T05:44:15.848Z,101899.13
2023-02-03T05:49:17.620Z,101895.38
2023-02-03T05:54:19.407Z,101907.53
2023-02-03T05:59:20.961Z,101897.63
2023-02-03T06:04:22.636Z,101902.72
2023-02-03T06:09:24.456Z,101906.16
2023-02-03T06:14:26.036Z,101913.22
2023-02-03T06:19:27.819Z,101912.13
2023-02-03T06:24:29.495Z,101921.84
2023-02-03T06:29:31.298Z,101933.66
2023-02-03T06:34:33.388Z,101911.44
2023-02-03T06:39:35.375Z,101915.97
2023-02-03T06:44:36.979Z,101916.53
2023-02-03T06:49:38.669Z,101936.25
2023-02-03T06:54:40.250Z,101933.75
2023-02-03T06:59:42.066Z,101929.00
2023-02-03T07:04:43.694Z,101932.28
2023-02-03T07:09:45.313Z,101921.47
2023-02-03T07:14:46.916Z,101922.13
2023-02-03T07:19:48.531Z,101926.88
2023-02-03T07:24:50.181Z,101921.63
2023-02-03T07:29:52.021Z,101920.22
2023-02-03T07:34:53.720Z,101922.56
2023-02-03T07:39:55.415Z,101936.16
2023-02-03T07:44:57.062Z,101954.88
2023-02-03T07:49:58.726Z,101938.56
2023-02-03T07:55:00.559Z,101925.78
2023-02-03T08:00:02.428Z,101942.94
2023-02-03T08:05:14.856Z,101941.84
2023-02-03T08:10:16.913Z,101952.88
2023-02-03T08:15:18.579Z,101957.50
2023-02-03T08:20:20.679Z,101940.94
2023-02-03T08:25:22.895Z,101950.31
2023-02-03T08:30:25.926Z,101951.34
2023-02-03T08:35:28.056Z,101944.91
2023-02-03T08:40:30.564Z,101957.88
2023-02-03T08:45:32.621Z,101968.53
2023-02-03T08:50:34.818Z,101982.13
2023-02-03T08:55:39.472Z,101985.28
2023-02-03T09:00:42.178Z,101978.44
2023-02-03T09:05:43.932Z,101980.34
2023-02-03T09:10:45.473Z,101972.47
2023-02-03T09:15:47.475Z,101976.41
2023-02-03T09:20:49.649Z,101978.88
2023-02-03T09:25:51.480Z,101976.94
2023-02-03T09:30:53.163Z,101976.78
2023-02-03T09:35:55.751Z,101965.06
2023-02-03T09:41:26.620Z,101981.50
2023-02-03T09:46:33.516Z,101969.47
2023-02-03T09:51:47.740Z,101962.38
2023-02-03T09:56:52.431Z,101960.16
2023-02-03T10:02:00.135Z,101957.88
2023-02-03T10:07:17.655Z,101969.78
2023-02-03T10:12:46.813Z,101966.75
2023-02-03T10:17:55.530Z,101996.91
2023-02-03T10:23:01.953Z,102000.91
2023-02-03T10:28:14.769Z,102017.03
2023-02-03T10:33:19.104Z,102019.81
2023-02-03T10:38:36.032Z,102016.00
2023-02-03T10:43:38.411Z,101998.53
2023-02-03T10:48:40.019Z,101991.88
2023-02-03T10:53:41.720Z,102003.00
2023-02-03T10:58:58.305Z,101984.75
2023-02-03T11:04:05.232Z,101981.75
2023-02-03T11:09:28.854Z,101972.28
2023-02-03T11:14:38.280Z,101970.59
2023-02-03T11:19:40.138Z,101955.97
2023-02-03T11:24:42.858Z,101970.50
2023-02-03T11:29:50.906Z,101969.00
2023-02-03T11:35:05.410Z,101960.06
2023-02-03T11:40:06.930Z,101952.03
2023-02-03T11:45:24.391Z,101950.28
2023-02-03T11:50:47.764Z,101985.97
2023-02-03T11:56:07.727Z,101994.88
2023-02-03T12:01:27.807Z,101987.47
2023-02-03T12:06:38.435Z,101983.66
2023-02-03T12:12:11.751Z,101973.63
2023-02-03T12:17:50.410Z,101974.78
2023-02-03T12:23:02.601Z,101964.63
2023-02-03T12:28:09.215Z,101969.13
2023-02-03T12:33:24.266Z,101975.84
2023-02-03T12:38:38.564Z,101969.16
2023-02-03T12:43:46.169Z,101966.22
2023-02-03T12:48:56.924Z,101963.94
2023-02-03T12:54:06.527Z,101980.66
2023-02-03T12:59:22.419Z,101968.72
2023-02-03T13:04:44.007Z,101963.28
2023-02-03T13:09:54.984Z,101967.75
2023-02-03T13:15:11.434Z,101963.03
2023-02-03T13:20:19.685Z,101974.66
2023-02-03T13:25:45.478Z,101966.38
2023-02-03T13:31:22.907Z,101971.13
2023-02-03T13:36:30.436Z,101973.88
2023-02-03T13:41:41.149Z,101954.66
2023-02-03T13:46:43.016Z,101976.31
2023-02-03T13:51:46.415Z,101969.19
2023-02-03T13:57:03.322Z,101974.34
2023-02-03T14:02:19.833Z,101980.63
2023-02-03T14:07:24.248Z,101977.31
2023-02-03T14:12:35.515Z,101979.41
2023-02-03T14:17:43.454Z,101982.56
2023-02-03T14:22:45.189Z,101987.97
2023-02-03T14:27:48.873Z,101989.03
2023-02-03T14:33:01.879Z,101999.72
2023-02-03T14:38:09.355Z,101996.81
2023-02-03T14:43:22.855Z,102007.13
2023-02-03T14:48:30.522Z,101991.84
2023-02-03T14:53:43.990Z,101983.28
2023-02-03T14:58:50.371Z,101981.59
2023-02-03T15:04:13.738Z,101976.41
2023-02-03T15:09:39.339Z,101995.09
2023-02-03T15:14:41.062Z,101992.31
2023-02-03T15:19:43.128Z,102007.38
2023-02-03T15:24:44.899Z,102004.59
2023-02-03T15:29:46.620Z,102013.44
2023-02-03T15:34:49.656Z,102035.63
2023-02-03T15:39:54.045Z,102028.28
2023-02-03T15:45:24.304Z,102041.25
2023-02-03T15:50:31.180Z,102047.16
2023-02-03T15:55:38.297Z,102048.16
2023-02-03T16:00:41.156Z,102049.88
2023-02-03T16:05:42.983Z,102049.97
2023-02-03T16:10:44.643Z,102057.50
2023-02-03T16:15:57.707Z,102052.22
2023-02-03T16:20:59.397Z,102057.47
2023-02-03T16:26:28.756Z,102061.69
2023-02-03T16:31:30.443Z,102089.78
2023-02-03T16:36:32.320Z,102110.47
2023-02-03T16:41:34.160Z,102111.88
2023-02-03T16:46:37.194Z,102110.75
2023-02-03T16:51:42.068Z,102124.91
2023-02-03T16:56:43.710Z,102130.28
2023-02-03T17:01:45.438Z,102114.56
2023-02-03T17:06:47.184Z,102128.91
2023-02-03T17:11:49.031Z,102136.91
2023-02-03T17:16:50.997Z,102136.00
2023-02-03T17:21:52.698Z,102141.63
2023-02-03T17:26:54.529Z,102149.50
2023-02-03T17:31:56.310Z,102151.16
2023-02-03T17:36:58.130Z,102143.28
2023-02-03T17:57:57.679Z,102159.03
2023-02-03T18:03:00.008Z,102164.13
2023-02-03T18:08:08.918Z,102178.31
2023-02-03T18:13:18.201Z,102174.19
2023-02-03T18:23:37.422Z,102187.25
2023-02-03T18:28:40.066Z,102194.13
2023-02-03T18:33:43.702Z,102201.63
2023-02-03T18:38:47.504Z,102206.84
2023-02-03T18:43:49.958Z,102213.72
2023-02-03T18:48:52.184Z,102225.84
2023-02-03T18:53:58.454Z,102246.25
2023-02-03T18:59:00.201Z,102237.03
2023-02-03T19:04:02.969Z,102242.38
2023-02-03T19:09:04.934Z,102240.41
2023-02-03T19:14:06.531Z,102233.00
2023-02-03T19:19:08.400Z,102233.44
2023-02-03T19:24:13.352Z,102245.31
2023-02-03T19:29:15.781Z,102251.53
2023-02-03T19:34:17.797Z,102263.09
2023-02-03T19:39:19.430Z,102259.34
2023-02-03T19:44:21.186Z,102279.75
2023-02-03T19:49:22.923Z,102291.09
2023-02-03T19:54:24.587Z,102274.03
2023-02-03T19:59:26.217Z,102287.59
2023-02-03T20:04:27.804Z,102303.81
2023-02-03T20:09:29.387Z,102295.25
2023-02-03T20:14:31.112Z,102297.28
2023-02-03T20:19:33.375Z,102289.66
2023-02-03T20:24:35.392Z,102299.72
2023-02-03T20:29:37.307Z,102311.91
2023-02-03T20:34:39.093Z,102307.81
2023-02-03T20:39:41.272Z,102317.00
2023-02-03T20:44:43.746Z,102317.00
2023-02-03T20:49:46.250Z,102320.97
2023-02-03T20:54:47.914Z,102312.63
2023-02-03T20:59:49.596Z,102330.00
2023-02-03T21:04:51.161Z,102325.16
2023-02-03T21:09:54.276Z,102321.16
2023-02-03T21:14:55.927Z,102349.84
2023-02-03T21:19:57.717Z,102357.19
2023-02-03T21:25:01.107Z,102352.06
2023-02-03T21:30:22.255Z,102360.06
2023-02-03T21:35:36.053Z,102361.59
2023-02-03T21:40:37.756Z,102357.06
2023-02-03T21:45:42.802Z,102359.97
2023-02-03T21:50:44.543Z,102369.63
2023-02-03T21:55:46.217Z,102362.09
2023-02-03T22:00:48.039Z,102369.94
2023-02-03T22:05:50.018Z,102376.69
2023-02-03T22:10:51.778Z,102380.53
2023-02-03T22:15:53.490Z,102383.31
2023-02-03T22:20:55.320Z,102397.78
2023-02-03T22:25:57.096Z,102399.03
2023-02-03T22:30:58.685Z,102402.22
2023-02-03T22:36:00.557Z,102408.56
2023-02-03T22:41:03.048Z,102417.78
2023-02-03T22:46:05.097Z,102418.50
2023-02-03T22:51:07.254Z,102422.38
2023-02-03T22:56:08.986Z,102417.53
2023-02-03T23:01:10.715Z,102437.25
2023-02-03T23:06:12.338Z,102436.84
2023-02-03T23:11:13.978Z,102454.38
2023-02-03T23:16:15.744Z,102457.09
2023-02-03T23:21:17.486Z,102470.88
2023-02-03T23:26:19.084Z,102464.31
2023-02-03T23:31:20.915Z,102472.97
2023-02-03T23:36:22.541Z,102477.81
2023-02-03T23:41:24.283Z,102462.03
2023-02-03T23:46:25.894Z,102457.94
2023-02-03T23:51:27.513Z,102468.50
2023-02-03T23:56:29.071Z,102478.19
